Hovedside
METAR-TAF:

METAR-TAF

Lufthavner :

Stord lufthavn. Sørstokken

Stord, Norge

breddegrad: 59-48N, lengdegrad: 005-21E, høyde over havet: 49 m

Gjeldene værobservasjon

Denne rapporten ble laget for 52 minutter siden, klokken 11:50 UTC
Vind 4 kt fra Sørøst
Temperatur 3°C
Luftfuktighet 93%
Trykk 1006 hPa
Sikt 10 km eller mer
Få skyer i en høyde av 700 ft
Få skyer i en høyde av 1800 ft, Bygeskyer.
Spredte skyer i en høyde av 7000 ft

METAR: ENSO 241150Z 13004KT 9999 FEW007 FEW018CB SCT070 03/02 Q1006

Tid: 13:42 (12:42 UTC)

Varsel

Denne rapporten ble laget for 1 time og 42 minutter siden, klokken 11:00 UTC
Varsel gyldig fra 24. klokken 12 UTC til 24. klokken 18 UTC
Vind 5 kt fra skiftende retning
Sikt 10 km eller mer
Få skyer i en høyde av 1500 ft, Tårnskyer (cumulus).
Brutte skyer i en høyde av 2000 ft
lette regnbyger
Blir
fra 24. klokken 15 UTC til 24. klokken 18 UTC
Vind 10 kt fra Sør-sørøst

TAF: ENSO 241100Z 2412/2418 VRB05KT 9999 -SHRA FEW015TCU BKN020 BECMG 2415/2418 15010KT

Værobservasjoner og værvarsel for over 4000 flyplasser (METAR- og TAF-rapporter).

Tilgjengelige stasjoner er representert av de røde og gule prikkene på kartet.

Hold musepekeren over prikken for å se navnet på stasjonen.

Klikk så for å se værobservasjoner og -varsler.

For å forandre kartet kan du klikke på den grønne knappen med svart kryss for å zoome inn, på den grønne knappen med strek for å zoome ut, eller på de grønne pilene for å se tilstøtende kart.


METAR-TAF: